createdAt,value
2022-12-01T00:00:28.022Z,49.50
2022-12-01T00:02:33.203Z,47.70
2022-12-01T00:04:34.746Z,37.92
2022-12-01T00:06:36.695Z,43.53
2022-12-01T00:08:38.532Z,48.40
2022-12-01T00:10:39.987Z,44.88
2022-12-01T00:12:43.519Z,41.80
2022-12-01T00:14:54.722Z,45.65
2022-12-01T00:16:56.315Z,41.75
2022-12-01T00:18:58.173Z,44.33
2022-12-01T00:20:59.598Z,39.00
2022-12-01T00:23:01.607Z,40.92
2022-12-01T00:25:03.250Z,40.53
2022-12-01T00:27:04.662Z,40.25
2022-12-01T00:29:06.059Z,41.58
2022-12-01T00:31:11.812Z,41.58
2022-12-01T00:35:38.244Z,36.08
2022-12-01T00:37:39.972Z,34.90
2022-12-01T00:39:41.389Z,33.95
2022-12-01T00:41:42.776Z,33.10
2022-12-01T00:43:44.141Z,29.27
2022-12-01T00:45:45.733Z,30.00
2022-12-01T00:47:47.166Z,37.20
2022-12-01T00:49:49.025Z,32.95
2022-12-01T00:51:50.710Z,32.15
2022-12-01T00:53:52.081Z,31.95
2022-12-01T00:55:54.009Z,33.63
2022-12-01T00:57:55.438Z,31.83
2022-12-01T00:59:56.889Z,36.50
2022-12-01T01:01:58.292Z,36.53
2022-12-01T01:03:59.759Z,34.78
2022-12-01T01:06:07.115Z,36.72
2022-12-01T01:08:09.780Z,34.95
2022-12-01T01:10:11.698Z,36.80
2022-12-01T01:12:13.141Z,39.30
2022-12-01T01:14:14.921Z,37.60
2022-12-01T01:16:20.044Z,38.60
2022-12-01T01:18:21.518Z,37.00
2022-12-01T01:20:22.909Z,37.75
2022-12-01T01:22:24.414Z,41.85
2022-12-01T01:24:25.812Z,44.20
2022-12-01T01:26:30.407Z,44.13
2022-12-01T01:28:32.103Z,41.92
2022-12-01T01:30:33.807Z,47.70
2022-12-01T01:32:35.273Z,43.72
2022-12-01T01:34:36.695Z,49.78
2022-12-01T01:36:38.217Z,43.15
2022-12-01T01:38:39.622Z,43.75
2022-12-01T01:40:45.221Z,51.03
2022-12-01T01:42:46.676Z,49.67
2022-12-01T01:44:48.701Z,48.17
2022-12-01T01:46:50.131Z,50.83
2022-12-01T01:49:07.891Z,48.13
2022-12-01T01:51:12.006Z,47.08
2022-12-01T01:53:14.786Z,44.13
2022-12-01T01:55:16.580Z,42.10
2022-12-01T01:57:26.353Z,42.70
2022-12-01T01:59:38.743Z,46.80
2022-12-01T02:01:40.307Z,42.08
2022-12-01T02:03:42.377Z,43.88
2022-12-01T02:05:47.226Z,47.13
2022-12-01T02:07:50.794Z,42.60
2022-12-01T02:09:53.601Z,47.03
2022-12-01T02:11:54.945Z,43.30
2022-12-01T02:14:08.302Z,42.60
2022-12-01T02:18:20.306Z,44.92
2022-12-01T02:20:43.356Z,47.05
2022-12-01T02:22:59.755Z,41.25
2022-12-01T02:25:21.560Z,42.13
2022-12-01T02:27:30.661Z,44.67
2022-12-01T02:30:08.270Z,43.83
2022-12-01T02:32:29.942Z,40.90
2022-12-01T02:34:40.198Z,39.53
2022-12-01T02:37:28.207Z,47.60
2022-12-01T02:39:35.686Z,41.15
2022-12-01T02:41:46.253Z,42.45
2022-12-01T02:44:03.742Z,47.20
2022-12-01T02:46:23.990Z,43.83
2022-12-01T02:48:33.733Z,44.97
2022-12-01T02:50:37.889Z,40.50
2022-12-01T02:52:41.023Z,43.38
2022-12-01T02:54:45.630Z,43.08
2022-12-01T02:56:47.027Z,47.67
2022-12-01T02:58:48.400Z,41.22
2022-12-01T03:01:11.057Z,39.45
2022-12-01T03:03:43.705Z,37.22
2022-12-01T03:05:51.654Z,34.28
2022-12-01T03:08:13.672Z,39.80
2022-12-01T03:10:21.109Z,38.55
2022-12-01T03:12:40.699Z,43.55
2022-12-01T03:16:53.714Z,44.17
2022-12-01T03:19:13.580Z,40.72
2022-12-01T03:21:17.635Z,46.50
2022-12-01T03:23:23.445Z,43.58
2022-12-01T03:25:27.617Z,38.45
2022-12-01T03:27:33.220Z,45.53
2022-12-01T03:29:41.225Z,46.25
2022-12-01T03:31:47.548Z,39.90
2022-12-01T03:34:03.947Z,48.83
2022-12-01T03:36:15.002Z,42.95
2022-12-01T03:38:25.840Z,38.80
2022-12-01T03:40:30.578Z,42.75
2022-12-01T03:42:44.759Z,44.38
2022-12-01T03:44:49.446Z,42.47
2022-12-01T03:47:02.747Z,44.25
2022-12-01T03:51:15.900Z,48.28
2022-12-01T03:53:27.293Z,40.88
2022-12-01T03:55:37.841Z,41.38
2022-12-01T03:57:53.112Z,44.33
2022-12-01T03:59:54.637Z,44.17
2022-12-01T04:01:57.509Z,47.40
2022-12-01T04:04:07.814Z,49.13
2022-12-01T04:06:09.152Z,50.63
2022-12-01T04:08:12.898Z,43.55
2022-12-01T04:10:14.356Z,46.65
2022-12-01T04:12:32.726Z,55.85
2022-12-01T04:14:34.137Z,59.90
2022-12-01T04:16:35.558Z,49.58
2022-12-01T04:18:36.960Z,54.25
2022-12-01T04:20:38.314Z,52.00
2022-12-01T04:22:39.839Z,45.13
2022-12-01T04:24:41.225Z,51.72
2022-12-01T04:26:43.342Z,64.57
2022-12-01T04:28:44.765Z,51.47
2022-12-01T04:30:47.287Z,45.83
2022-12-01T04:32:48.622Z,48.30
2022-12-01T04:34:50.144Z,48.63
2022-12-01T04:36:51.535Z,53.22
2022-12-01T04:38:53.024Z,43.75
2022-12-01T04:40:54.421Z,40.60
2022-12-01T04:42:56.056Z,44.33
2022-12-01T04:44:57.785Z,41.10
2022-12-01T04:46:59.285Z,43.50
2022-12-01T04:49:00.683Z,40.53
2022-12-01T04:51:03.276Z,39.05
2022-12-01T04:53:04.642Z,40.20
2022-12-01T04:55:08.338Z,41.75
2022-12-01T04:57:09.707Z,42.17
2022-12-01T04:59:11.524Z,36.40
2022-12-01T05:01:14.909Z,36.95
2022-12-01T05:03:16.467Z,38.22
2022-12-01T05:05:18.002Z,35.38
2022-12-01T05:07:19.438Z,34.45
2022-12-01T05:09:21.284Z,37.08
2022-12-01T05:11:24.332Z,36.13
2022-12-01T05:13:26.088Z,34.40
2022-12-01T05:15:27.423Z,36.33
2022-12-01T05:17:36.666Z,34.72
2022-12-01T05:19:56.899Z,31.92
2022-12-01T05:21:58.239Z,33.47
2022-12-01T05:23:59.620Z,31.42
2022-12-01T05:26:02.089Z,30.92
2022-12-01T05:28:04.817Z,31.67
2022-12-01T05:30:07.056Z,32.00
2022-12-01T05:32:08.771Z,31.30
2022-12-01T05:34:10.123Z,33.30
2022-12-01T05:36:11.736Z,34.13
2022-12-01T05:38:13.556Z,27.60
2022-12-01T05:40:14.946Z,33.67
2022-12-01T05:42:16.310Z,29.95
2022-12-01T05:44:17.890Z,29.45
2022-12-01T05:46:19.468Z,35.75
2022-12-01T05:48:20.993Z,33.72
2022-12-01T05:50:23.834Z,31.15
2022-12-01T05:52:25.187Z,31.17
2022-12-01T05:54:29.398Z,33.28
2022-12-01T05:56:30.819Z,30.00
2022-12-01T05:58:32.386Z,33.30
2022-12-01T06:00:34.232Z,38.58
2022-12-01T06:02:35.594Z,30.40
2022-12-01T06:04:37.016Z,33.97
2022-12-01T06:06:38.546Z,35.00
2022-12-01T06:08:39.995Z,32.60
2022-12-01T06:10:41.573Z,32.40
2022-12-01T06:12:43.002Z,34.42
2022-12-01T06:17:10.426Z,26.98
2022-12-01T06:19:11.827Z,30.25
2022-12-01T06:21:13.186Z,27.80
2022-12-01T06:23:14.518Z,26.20
2022-12-01T06:25:15.981Z,26.15
2022-12-01T06:27:17.524Z,26.38
2022-12-01T06:29:19.005Z,27.15
2022-12-01T06:31:20.426Z,32.25
2022-12-01T06:33:21.877Z,27.73
2022-12-01T06:35:23.263Z,32.10
2022-12-01T06:37:24.773Z,29.33
2022-12-01T06:39:26.140Z,28.38
2022-12-01T06:41:27.604Z,30.55
2022-12-01T06:43:29.187Z,30.95
2022-12-01T06:45:31.219Z,28.42
2022-12-01T06:47:33.363Z,31.63
2022-12-01T06:49:35.630Z,34.22
2022-12-01T06:51:36.975Z,29.58
2022-12-01T06:53:38.334Z,31.08
2022-12-01T06:55:39.967Z,28.05
2022-12-01T06:57:41.423Z,29.50
2022-12-01T06:59:43.102Z,29.77
2022-12-01T07:01:44.888Z,26.27
2022-12-01T07:03:50.520Z,28.65
2022-12-01T07:05:59.884Z,30.08
2022-12-01T07:08:01.391Z,31.33
2022-12-01T07:10:03.081Z,30.15
2022-12-01T07:12:04.943Z,28.23
2022-12-01T07:14:06.394Z,28.40
2022-12-01T07:16:08.967Z,30.20
2022-12-01T07:18:10.305Z,31.85
2022-12-01T07:20:12.081Z,32.70
2022-12-01T07:22:13.417Z,33.00
2022-12-01T07:24:14.808Z,26.88
2022-12-01T07:26:17.878Z,27.67
2022-12-01T07:28:19.218Z,29.33
2022-12-01T07:30:25.425Z,28.50
2022-12-01T07:32:29.636Z,27.90
2022-12-01T07:34:30.988Z,29.05
2022-12-01T07:36:33.017Z,26.77
2022-12-01T07:38:35.465Z,28.52
2022-12-01T07:40:36.832Z,30.73
2022-12-01T07:42:42.141Z,32.13
2022-12-01T07:44:43.486Z,26.98
2022-12-01T07:46:44.922Z,30.35
2022-12-01T07:48:46.399Z,29.98
2022-12-01T07:50:47.812Z,29.30
2022-12-01T07:52:50.716Z,34.25
2022-12-01T07:54:52.627Z,28.77
2022-12-01T07:56:54.441Z,34.13
2022-12-01T07:58:55.802Z,35.63
2022-12-01T08:00:57.301Z,31.40
2022-12-01T08:02:58.676Z,29.33
2022-12-01T08:05:00.254Z,34.35
2022-12-01T08:07:01.633Z,29.70
2022-12-01T08:09:03.097Z,29.60
2022-12-01T08:11:07.117Z,32.67
2022-12-01T08:13:10.719Z,32.55
2022-12-01T08:17:17.012Z,32.60
2022-12-01T08:19:18.416Z,24.90
2022-12-01T08:21:21.447Z,31.23
2022-12-01T08:23:22.787Z,26.60
2022-12-01T08:25:24.184Z,29.63
2022-12-01T08:27:25.585Z,24.30
2022-12-01T08:29:26.936Z,21.25
2022-12-01T08:31:31.144Z,21.58
2022-12-01T08:33:32.539Z,21.42
2022-12-01T08:35:36.825Z,28.15
2022-12-01T08:37:38.245Z,25.02
2022-12-01T08:39:39.626Z,26.52
2022-12-01T08:41:41.035Z,26.75
2022-12-01T08:44:00.704Z,29.95
2022-12-01T08:46:03.248Z,31.65
2022-12-01T08:48:04.734Z,33.05
2022-12-01T08:50:06.673Z,34.58
2022-12-01T08:52:08.046Z,40.10
2022-12-01T08:54:11.123Z,32.80
2022-12-01T08:56:15.383Z,36.33
2022-12-01T08:58:16.746Z,36.08
2022-12-01T09:00:18.376Z,36.00
2022-12-01T09:02:22.784Z,33.63
2022-12-01T09:04:25.444Z,39.92
2022-12-01T09:06:26.808Z,34.80
2022-12-01T09:08:31.060Z,39.30
2022-12-01T09:10:32.445Z,45.58
2022-12-01T09:12:33.805Z,39.75
2022-12-01T09:14:40.791Z,40.83
2022-12-01T09:16:43.819Z,36.42
2022-12-01T09:18:46.569Z,43.80
2022-12-01T09:20:47.987Z,41.72
2022-12-01T09:22:49.405Z,44.13
2022-12-01T09:24:50.772Z,43.63
2022-12-01T09:26:56.971Z,39.92
2022-12-01T09:29:01.332Z,40.95
2022-12-01T09:31:07.923Z,42.78
2022-12-01T09:33:09.346Z,43.95
2022-12-01T09:35:10.736Z,43.72
2022-12-01T09:37:12.096Z,40.53
2022-12-01T09:39:16.678Z,44.13
2022-12-01T09:41:25.996Z,45.63
2022-12-01T09:43:34.020Z,42.50
2022-12-01T09:45:39.932Z,39.75
2022-12-01T09:47:42.564Z,40.22
2022-12-01T09:50:00.106Z,43.75
2022-12-01T09:52:01.857Z,45.17
2022-12-01T09:54:03.654Z,50.97
2022-12-01T09:56:11.521Z,52.75
2022-12-01T09:58:19.609Z,42.72
2022-12-01T10:00:27.261Z,48.97
2022-12-01T10:02:37.359Z,49.40
2022-12-01T10:04:43.063Z,48.33
2022-12-01T10:06:59.570Z,48.90
2022-12-01T10:09:26.760Z,53.00
2022-12-01T10:11:33.182Z,51.20
2022-12-01T10:13:34.896Z,57.03
2022-12-01T10:15:54.553Z,55.38
2022-12-01T10:18:08.580Z,55.00
2022-12-01T10:20:33.709Z,55.30
2022-12-01T10:22:53.554Z,61.17
2022-12-01T10:25:20.842Z,55.83
2022-12-01T10:27:29.850Z,58.60
2022-12-01T10:29:45.050Z,62.42
2022-12-01T10:31:58.260Z,57.50
2022-12-01T10:34:06.265Z,57.22
2022-12-01T10:36:09.841Z,58.65
2022-12-01T10:38:31.915Z,66.80
2022-12-01T10:40:35.172Z,60.25
2022-12-01T10:42:44.931Z,57.95
2022-12-01T10:44:47.093Z,70.78
2022-12-01T10:46:56.357Z,64.55
2022-12-01T10:49:00.198Z,61.75
2022-12-01T10:51:20.538Z,63.20
2022-12-01T10:53:33.593Z,70.38
2022-12-01T10:55:43.428Z,65.70
2022-12-01T10:57:50.020Z,66.00
2022-12-01T10:59:56.788Z,64.85
2022-12-01T11:01:59.675Z,67.57
2022-12-01T11:04:26.969Z,68.85
2022-12-01T11:06:30.682Z,67.75
2022-12-01T11:08:44.314Z,64.55
2022-12-01T11:10:49.191Z,62.88
2022-12-01T11:13:24.759Z,66.72
2022-12-01T11:15:33.079Z,68.82
2022-12-01T11:17:41.716Z,65.55
2022-12-01T11:19:43.454Z,68.55
2022-12-01T11:21:48.025Z,65.05
2022-12-01T11:23:52.253Z,66.18
2022-12-01T11:25:57.161Z,65.80
2022-12-01T11:28:01.784Z,63.67
2022-12-01T11:30:24.673Z,58.30
2022-12-01T11:32:29.577Z,57.65
2022-12-01T11:34:34.361Z,64.18
2022-12-01T11:36:44.514Z,60.42
2022-12-01T11:38:47.395Z,65.07
2022-12-01T11:40:52.090Z,66.25
2022-12-01T11:42:57.159Z,64.03
2022-12-01T11:45:23.601Z,63.83
2022-12-01T11:47:27.204Z,62.03
2022-12-01T11:49:30.098Z,63.67
2022-12-01T11:51:37.596Z,65.03
2022-12-01T11:53:41.484Z,58.75
2022-12-01T11:55:42.828Z,66.22
2022-12-01T11:57:47.166Z,64.90
2022-12-01T11:59:48.957Z,60.35
2022-12-01T12:01:50.713Z,58.10
2022-12-01T12:04:05.697Z,52.58
2022-12-01T12:06:39.371Z,55.60
2022-12-01T12:08:58.033Z,51.20
2022-12-01T12:11:14.812Z,47.65
2022-12-01T12:13:16.127Z,43.47
2022-12-01T12:15:28.042Z,50.58
2022-12-01T12:18:14.218Z,43.10
2022-12-01T12:20:24.903Z,48.38
2022-12-01T12:22:41.608Z,45.17
2022-12-01T12:25:03.307Z,47.80
2022-12-01T12:27:12.187Z,40.22
2022-12-01T12:29:22.598Z,47.15
2022-12-01T12:31:45.928Z,43.97
2022-12-01T12:34:16.258Z,48.95
2022-12-01T12:36:45.350Z,43.67
2022-12-01T12:39:01.882Z,51.30
2022-12-01T12:41:24.256Z,47.72
2022-12-01T12:43:51.961Z,53.55
2022-12-01T12:46:00.529Z,49.40
2022-12-01T12:48:14.956Z,48.10
2022-12-01T12:50:45.863Z,48.08
2022-12-01T12:52:51.506Z,51.47
2022-12-01T12:55:08.458Z,49.70
2022-12-01T12:57:27.276Z,51.75
2022-12-01T12:59:40.814Z,51.47
2022-12-01T13:01:47.463Z,51.72
2022-12-01T13:04:11.206Z,49.92
2022-12-01T13:06:24.530Z,46.90
2022-12-01T13:10:38.215Z,44.60
2022-12-01T13:12:45.438Z,48.95
2022-12-01T13:14:59.468Z,47.85
2022-12-01T13:17:25.854Z,47.80
2022-12-01T13:19:30.851Z,47.67
2022-12-01T13:21:38.873Z,45.92
2022-12-01T13:23:40.495Z,43.67
2022-12-01T13:25:44.144Z,44.58
2022-12-01T13:27:48.452Z,44.42
2022-12-01T13:29:53.062Z,42.80
2022-12-01T13:31:55.247Z,39.25
2022-12-01T13:34:02.451Z,41.78
2022-12-01T13:38:36.679Z,42.53
2022-12-01T13:40:39.078Z,41.13
2022-12-01T13:42:40.810Z,43.63
2022-12-01T13:44:45.051Z,45.10
2022-12-01T13:46:46.388Z,43.65
2022-12-01T13:48:47.776Z,45.90
2022-12-01T13:51:01.064Z,48.30
2022-12-01T13:55:28.578Z,49.28
2022-12-01T13:57:32.803Z,46.72
2022-12-01T14:00:04.381Z,46.22
2022-12-01T14:02:17.471Z,43.63
2022-12-01T14:04:27.984Z,46.65
2022-12-01T14:06:49.972Z,46.83
2022-12-01T14:08:56.135Z,45.60
2022-12-01T14:11:05.875Z,45.88
2022-12-01T14:13:07.484Z,48.75
2022-12-01T14:15:34.888Z,47.85
2022-12-01T14:17:38.265Z,45.20
2022-12-01T14:19:47.869Z,47.42
2022-12-01T14:21:49.749Z,49.80
2022-12-01T14:24:05.246Z,51.10
2022-12-01T14:26:13.733Z,52.10
2022-12-01T14:28:17.030Z,51.50
2022-12-01T14:30:45.514Z,57.00
2022-12-01T14:32:46.944Z,57.78
2022-12-01T14:34:52.363Z,52.13
2022-12-01T14:37:19.527Z,51.13
2022-12-01T14:39:25.424Z,50.70
2022-12-01T14:41:45.547Z,49.25
2022-12-01T14:44:05.657Z,49.15
2022-12-01T14:46:10.428Z,49.60
2022-12-01T14:48:17.046Z,49.47
2022-12-01T14:50:25.144Z,48.97
2022-12-01T14:52:34.595Z,47.78
2022-12-01T14:55:00.819Z,49.35
2022-12-01T14:57:06.795Z,50.22
2022-12-01T14:59:21.987Z,52.00
2022-12-01T15:01:25.544Z,53.88
2022-12-01T15:03:33.148Z,55.42
2022-12-01T15:05:40.234Z,52.03
2022-12-01T15:10:01.814Z,56.30
2022-12-01T15:12:07.497Z,53.35
2022-12-01T15:14:30.050Z,54.08
2022-12-01T15:16:32.179Z,53.17
2022-12-01T15:18:36.710Z,61.88
2022-12-01T15:20:41.288Z,52.88
2022-12-01T15:22:46.332Z,56.03
2022-12-01T15:24:48.253Z,56.90
2022-12-01T15:26:55.179Z,55.17
2022-12-01T15:29:19.041Z,52.33
2022-12-01T15:31:20.481Z,55.38
2022-12-01T15:33:35.408Z,57.00
2022-12-01T15:35:38.458Z,54.90
2022-12-01T15:37:43.198Z,53.60
2022-12-01T15:42:29.447Z,48.20
2022-12-01T15:44:36.300Z,46.95
2022-12-01T15:46:37.655Z,48.85
2022-12-01T15:48:39.983Z,47.65
2022-12-01T15:50:46.492Z,46.20
2022-12-01T15:52:48.086Z,46.28
2022-12-01T15:54:50.396Z,46.03
2022-12-01T15:56:56.317Z,48.63
2022-12-01T15:59:14.984Z,45.22
2022-12-01T16:01:19.375Z,46.25
2022-12-01T16:03:21.085Z,47.35
2022-12-01T16:05:26.652Z,46.08
2022-12-01T16:07:50.515Z,41.38
2022-12-01T16:10:00.257Z,44.60
2022-12-01T16:12:17.456Z,44.17
2022-12-01T16:14:21.722Z,42.13
2022-12-01T16:16:41.865Z,44.90
2022-12-01T16:18:59.336Z,41.78
2022-12-01T16:21:05.244Z,45.72
2022-12-01T16:23:15.352Z,47.33
2022-12-01T16:25:35.740Z,39.47
2022-12-01T16:27:53.104Z,45.63
2022-12-01T16:29:57.975Z,42.28
2022-12-01T16:32:25.954Z,46.50
2022-12-01T16:34:45.309Z,44.58
2022-12-01T16:36:48.024Z,41.70
2022-12-01T16:38:49.431Z,44.45
2022-12-01T16:40:53.921Z,39.50
2022-12-01T16:42:56.316Z,49.75
2022-12-01T16:44:57.675Z,49.33
2022-12-01T16:46:59.037Z,45.78
2022-12-01T16:49:00.413Z,46.88
2022-12-01T16:51:03.966Z,42.22
2022-12-01T16:53:05.399Z,48.15
2022-12-01T16:55:23.756Z,48.55
2022-12-01T16:57:25.121Z,50.97
2022-12-01T16:59:26.596Z,47.80
2022-12-01T17:01:29.176Z,49.67
2022-12-01T17:03:30.974Z,46.55
2022-12-01T17:05:33.338Z,53.33
2022-12-01T17:07:34.729Z,50.38
2022-12-01T17:09:36.212Z,50.80
2022-12-01T17:11:37.606Z,46.65
2022-12-01T17:13:39.062Z,50.83
2022-12-01T17:15:48.485Z,50.97
2022-12-01T17:17:49.949Z,47.72
2022-12-01T17:19:52.833Z,47.97
2022-12-01T17:21:55.719Z,48.88
2022-12-01T17:23:57.130Z,49.22
2022-12-01T17:25:59.500Z,51.90
2022-12-01T17:28:00.900Z,47.80
2022-12-01T17:30:02.433Z,49.78
2022-12-01T17:32:03.933Z,47.15
2022-12-01T17:34:05.361Z,52.00
2022-12-01T17:36:10.572Z,52.28
2022-12-01T17:38:12.116Z,50.63
2022-12-01T17:40:14.566Z,40.35
2022-12-01T17:42:16.183Z,45.03
2022-12-01T17:44:17.583Z,41.92
2022-12-01T17:46:19.005Z,36.28
2022-12-01T17:48:20.409Z,37.20
2022-12-01T17:50:21.804Z,38.70
2022-12-01T17:52:28.236Z,41.78
2022-12-01T17:54:30.054Z,41.08
2022-12-01T17:56:31.579Z,42.08
2022-12-01T17:58:32.959Z,45.90
2022-12-01T18:00:34.346Z,43.08
2022-12-01T18:02:35.861Z,42.80
2022-12-01T18:04:37.387Z,47.28
2022-12-01T18:06:40.238Z,44.13
2022-12-01T18:08:42.146Z,46.22
2022-12-01T18:10:44.100Z,40.72
2022-12-01T18:12:45.452Z,43.20
2022-12-01T18:14:47.422Z,46.60
2022-12-01T18:16:49.363Z,42.13
2022-12-01T18:18:51.005Z,42.90
2022-12-01T18:20:52.344Z,43.75
2022-12-01T18:22:53.705Z,45.75
2022-12-01T18:24:56.243Z,46.40
2022-12-01T18:26:57.756Z,40.10
2022-12-01T18:29:04.761Z,44.03
2022-12-01T18:31:11.984Z,42.83
2022-12-01T18:33:13.505Z,46.08
2022-12-01T18:35:14.928Z,46.42
2022-12-01T18:37:16.279Z,44.65
2022-12-01T18:39:17.761Z,43.25
2022-12-01T18:41:20.033Z,48.78
2022-12-01T18:43:21.395Z,49.08
2022-12-01T18:45:22.759Z,42.38
2022-12-01T18:47:24.187Z,47.75
2022-12-01T18:49:25.623Z,42.13
2022-12-01T18:51:27.732Z,46.55
2022-12-01T18:53:29.207Z,48.17
2022-12-01T18:55:30.530Z,45.33
2022-12-01T18:57:31.908Z,48.88
2022-12-01T18:59:33.301Z,45.35
2022-12-01T19:01:37.498Z,47.25
2022-12-01T19:03:38.893Z,49.20
2022-12-01T19:05:40.420Z,48.13
2022-12-01T19:07:41.874Z,52.38
2022-12-01T19:09:43.329Z,54.70
2022-12-01T19:11:44.912Z,54.78
2022-12-01T19:13:47.126Z,47.90
2022-12-01T19:15:48.639Z,47.45
2022-12-01T19:17:50.121Z,49.72
2022-12-01T19:19:51.454Z,52.17
2022-12-01T19:21:53.904Z,43.38
2022-12-01T19:23:55.318Z,46.33
2022-12-01T19:25:57.116Z,46.22
2022-12-01T19:27:58.464Z,47.47
2022-12-01T19:29:59.855Z,46.55
2022-12-01T19:32:01.568Z,49.00
2022-12-01T19:34:04.082Z,48.03
2022-12-01T19:36:07.159Z,44.88
2022-12-01T19:38:08.555Z,51.25
2022-12-01T19:40:10.400Z,46.58
2022-12-01T19:42:11.807Z,43.05
2022-12-01T19:44:13.208Z,46.00
2022-12-01T19:46:17.426Z,41.92
2022-12-01T19:48:18.903Z,43.30
2022-12-01T19:50:20.280Z,43.83
2022-12-01T19:52:21.639Z,43.83
2022-12-01T19:54:23.134Z,38.47
2022-12-01T19:56:24.987Z,40.13
2022-12-01T19:58:26.384Z,38.75
2022-12-01T20:00:27.745Z,39.15
2022-12-01T20:02:29.653Z,30.20
2022-12-01T20:04:31.203Z,33.63
2022-12-01T20:06:34.963Z,36.00
2022-12-01T20:08:36.658Z,36.08
2022-12-01T20:10:38.001Z,39.60
2022-12-01T20:12:39.468Z,32.63
2022-12-01T20:14:41.175Z,36.38
2022-12-01T20:16:42.706Z,38.97
2022-12-01T20:18:44.399Z,38.80
2022-12-01T20:20:45.762Z,33.90
2022-12-01T20:22:47.147Z,36.33
2022-12-01T20:24:48.840Z,31.38
2022-12-01T20:26:54.030Z,35.83
2022-12-01T20:29:00.473Z,34.13
2022-12-01T20:31:02.108Z,34.55
2022-12-01T20:33:03.454Z,35.67
2022-12-01T20:35:05.417Z,41.70
2022-12-01T20:37:06.966Z,37.88
2022-12-01T20:39:09.924Z,33.42
2022-12-01T20:41:12.230Z,41.28
2022-12-01T20:43:13.670Z,35.60
2022-12-01T20:45:15.048Z,36.05
2022-12-01T20:47:18.553Z,36.13
2022-12-01T20:49:20.504Z,36.05
2022-12-01T20:51:21.973Z,32.97
2022-12-01T20:53:23.393Z,38.38
2022-12-01T20:55:24.770Z,38.13
2022-12-01T20:57:26.200Z,35.90
2022-12-01T20:59:28.530Z,40.30
2022-12-01T21:01:29.894Z,36.38
2022-12-01T21:03:31.363Z,34.78
2022-12-01T21:05:33.137Z,39.50
2022-12-01T21:07:34.747Z,34.53
2022-12-01T21:09:36.235Z,37.55
2022-12-01T21:12:06.603Z,41.42
2022-12-01T21:14:17.635Z,40.35
2022-12-01T21:16:32.273Z,40.13
2022-12-01T21:18:52.019Z,40.55
2022-12-01T21:23:02.433Z,37.72
2022-12-01T21:25:18.742Z,42.65
2022-12-01T21:27:20.184Z,37.30
2022-12-01T21:29:26.116Z,41.88
2022-12-01T21:31:27.565Z,39.13
2022-12-01T21:33:34.564Z,41.88
2022-12-01T21:35:35.947Z,41.45
2022-12-01T21:37:37.335Z,44.75
2022-12-01T21:39:39.141Z,38.58
2022-12-01T21:41:40.715Z,42.10
2022-12-01T21:43:42.088Z,39.33
2022-12-01T21:45:44.021Z,44.33
2022-12-01T21:47:45.433Z,36.85
2022-12-01T21:49:51.756Z,34.92
2022-12-01T21:51:53.668Z,36.35
2022-12-01T21:53:55.979Z,38.65
2022-12-01T21:55:57.867Z,44.95
2022-12-01T21:57:59.435Z,40.88
2022-12-01T22:00:26.470Z,39.75
2022-12-01T22:02:45.159Z,36.83
2022-12-01T22:04:46.751Z,42.33
2022-12-01T22:06:51.814Z,37.45
2022-12-01T22:08:55.839Z,37.53
2022-12-01T22:10:59.922Z,36.33
2022-12-01T22:13:02.092Z,35.60
2022-12-01T22:15:27.845Z,35.85
2022-12-01T22:17:29.851Z,43.92
2022-12-01T22:19:37.329Z,38.72
2022-12-01T22:21:45.095Z,40.05
2022-12-01T22:23:46.743Z,38.03
2022-12-01T22:25:49.260Z,41.35
2022-12-01T22:27:51.657Z,41.60
2022-12-01T22:30:21.728Z,36.13
2022-12-01T22:32:34.031Z,42.17
2022-12-01T22:34:35.411Z,38.35
2022-12-01T22:36:36.743Z,39.90
2022-12-01T22:38:39.657Z,44.40
2022-12-01T22:41:09.188Z,39.88
2022-12-01T22:43:17.021Z,38.88
2022-12-01T22:45:25.155Z,40.17
2022-12-01T22:47:31.348Z,44.00
2022-12-01T22:49:34.027Z,41.70
2022-12-01T22:51:40.046Z,44.05
2022-12-01T22:53:43.804Z,42.53
2022-12-01T22:55:45.255Z,46.13
2022-12-01T22:57:46.885Z,41.38
2022-12-01T22:59:50.178Z,43.88
2022-12-01T23:01:55.434Z,40.45
2022-12-01T23:04:11.954Z,42.30
2022-12-01T23:06:49.158Z,40.03
2022-12-01T23:08:50.512Z,43.50
2022-12-01T23:10:51.935Z,43.78
2022-12-01T23:12:56.927Z,45.63
2022-12-01T23:15:06.970Z,43.13
2022-12-01T23:17:14.985Z,41.10
2022-12-01T23:19:16.424Z,45.63
2022-12-01T23:21:17.754Z,41.85
2022-12-01T23:23:27.868Z,41.78
2022-12-01T23:25:29.502Z,46.53
2022-12-01T23:27:30.893Z,42.38
2022-12-01T23:29:32.435Z,48.53
2022-12-01T23:31:33.892Z,49.17
2022-12-01T23:33:35.427Z,37.38
2022-12-01T23:35:45.429Z,43.92
2022-12-01T23:37:47.901Z,46.00
2022-12-01T23:39:50.836Z,42.85
2022-12-01T23:41:52.291Z,41.15
2022-12-01T23:43:55.703Z,42.97
2022-12-01T23:46:09.587Z,42.70
2022-12-01T23:48:22.553Z,45.80
2022-12-01T23:50:26.894Z,45.90
2022-12-01T23:52:35.190Z,41.92
2022-12-01T23:54:38.269Z,43.35
2022-12-01T23:56:39.787Z,45.47
2022-12-01T23:58:43.533Z,41.90
